Airport View

Enter AWOS ICAO identifier for current METAR.

ex. KFNL

KEIK 080554Z AUTO 28006KT 10SM CLR 22/M06 A3004 RMK AO2 T02161058

8 Aug 2020 06:02

Frequency: 133.825

Phone: 303-604-4339

Other Area AWOS: KBJC - KBDU - KLMO - KDEN

TAF KBJC 080555Z 0806/0906 31008KT P6SM FEW150 FM081900 06008KT P6SM SCT120